createdAt,value
2022-10-19T00:01:12.412Z,12.30
2022-10-19T00:03:40.313Z,12.22
2022-10-19T00:06:15.750Z,12.20
2022-10-19T00:08:43.492Z,12.20
2022-10-19T00:11:11.148Z,12.10
2022-10-19T00:13:38.856Z,12.10
2022-10-19T00:16:14.873Z,12.10
2022-10-19T00:18:45.683Z,12.10
2022-10-19T00:21:18.577Z,12.10
2022-10-19T00:23:46.501Z,12.10
2022-10-19T00:26:13.553Z,12.10
2022-10-19T00:28:41.178Z,12.10
2022-10-19T00:31:13.990Z,12.10
2022-10-19T00:33:41.297Z,12.00
2022-10-19T00:36:23.964Z,12.00
2022-10-19T00:38:51.294Z,11.92
2022-10-19T00:41:20.440Z,11.90
2022-10-19T00:44:05.535Z,11.90
2022-10-19T00:46:36.711Z,11.80
2022-10-19T00:49:15.953Z,11.80
2022-10-19T00:51:49.472Z,11.70
2022-10-19T00:54:17.522Z,11.70
2022-10-19T00:56:49.801Z,11.60
2022-10-19T00:59:21.865Z,11.58
2022-10-19T01:01:49.845Z,11.50
2022-10-19T01:04:16.506Z,11.40
2022-10-19T01:06:43.031Z,11.40
2022-10-19T01:09:09.493Z,11.30
2022-10-19T01:12:03.493Z,11.30
2022-10-19T01:14:58.561Z,11.20
2022-10-19T01:17:53.176Z,11.20
2022-10-19T01:21:09.222Z,11.10
2022-10-19T01:24:13.086Z,11.10
2022-10-19T01:27:13.220Z,11.00
2022-10-19T01:30:09.397Z,11.00
2022-10-19T01:33:04.322Z,10.90
2022-10-19T01:36:00.675Z,10.90
2022-10-19T01:38:37.939Z,10.90
2022-10-19T01:41:11.036Z,10.90
2022-10-19T01:43:58.081Z,10.90
2022-10-19T01:46:36.257Z,10.90
2022-10-19T01:49:13.202Z,10.90
2022-10-19T01:51:51.774Z,10.90
2022-10-19T01:54:22.696Z,11.00
2022-10-19T01:56:51.327Z,11.00
2022-10-19T01:59:21.275Z,11.00
2022-10-19T02:01:52.619Z,11.00
2022-10-19T02:04:22.839Z,11.10
2022-10-19T02:06:54.770Z,11.10
2022-10-19T02:09:21.841Z,11.10
2022-10-19T02:11:56.924Z,11.10
2022-10-19T02:14:32.839Z,11.10
2022-10-19T02:17:13.998Z,11.10
2022-10-19T02:19:41.795Z,11.00
2022-10-19T02:22:11.534Z,11.00
2022-10-19T02:24:38.025Z,11.04
2022-10-19T02:27:07.187Z,11.10
2022-10-19T02:29:36.489Z,11.10
2022-10-19T02:32:04.293Z,11.10
2022-10-19T02:34:31.476Z,11.10
2022-10-19T02:36:58.280Z,11.10
2022-10-19T02:39:25.404Z,11.10
2022-10-19T02:42:03.275Z,11.10
2022-10-19T02:44:35.384Z,11.10
2022-10-19T02:47:10.298Z,11.10
2022-10-19T02:49:38.754Z,11.10
2022-10-19T02:52:09.766Z,11.10
2022-10-19T02:54:38.109Z,11.10
2022-10-19T02:57:23.800Z,11.10
2022-10-19T02:59:51.797Z,11.10
2022-10-19T03:02:20.578Z,11.08
2022-10-19T03:07:21.072Z,10.80
2022-10-19T03:09:47.688Z,10.80
2022-10-19T03:12:15.238Z,10.80
2022-10-19T03:14:42.374Z,10.74
2022-10-19T03:17:09.636Z,10.80
2022-10-19T03:19:37.533Z,10.80
2022-10-19T03:22:04.803Z,10.80
2022-10-19T03:24:32.284Z,10.80
2022-10-19T03:26:58.665Z,10.80
2022-10-19T03:29:25.414Z,10.78
2022-10-19T03:31:52.394Z,10.80
2022-10-19T03:34:18.898Z,10.84
2022-10-19T03:36:45.655Z,10.90
2022-10-19T03:39:15.502Z,10.90
2022-10-19T03:41:43.020Z,10.90
2022-10-19T03:44:11.321Z,10.90
2022-10-19T03:46:39.197Z,10.90
2022-10-19T03:49:06.123Z,10.94
2022-10-19T03:51:34.317Z,11.00
2022-10-19T03:54:04.920Z,11.00
2022-10-19T03:56:34.214Z,11.04
2022-10-19T03:59:04.161Z,11.10
2022-10-19T04:01:38.705Z,11.16
2022-10-19T04:04:11.249Z,11.10
2022-10-19T04:06:42.114Z,11.00
2022-10-19T04:09:12.409Z,11.00
2022-10-19T04:11:39.133Z,10.90
2022-10-19T04:14:05.689Z,10.90
2022-10-19T04:16:32.335Z,10.90
2022-10-19T04:19:00.017Z,10.90
2022-10-19T04:21:33.715Z,10.94
2022-10-19T04:24:14.054Z,10.90
2022-10-19T04:26:45.941Z,11.00
2022-10-19T04:29:13.718Z,11.08
2022-10-19T04:31:40.941Z,11.10
2022-10-19T04:34:08.391Z,11.10
2022-10-19T04:36:35.587Z,11.10
2022-10-19T04:39:02.125Z,11.10
2022-10-19T04:41:28.529Z,11.12
2022-10-19T04:43:58.916Z,11.20
2022-10-19T04:46:27.257Z,11.20
2022-10-19T04:48:56.337Z,11.20
2022-10-19T04:51:24.688Z,11.20
2022-10-19T04:53:51.921Z,11.20
2022-10-19T04:56:23.302Z,11.20
2022-10-19T04:58:50.083Z,11.20
2022-10-19T05:01:20.830Z,11.20
2022-10-19T05:03:48.806Z,11.20
2022-10-19T05:06:16.043Z,11.26
2022-10-19T05:08:42.505Z,11.30
2022-10-19T05:11:15.564Z,11.30
2022-10-19T05:13:43.367Z,11.30
2022-10-19T05:16:20.257Z,11.30
2022-10-19T05:18:52.491Z,11.30
2022-10-19T05:21:21.784Z,11.26
2022-10-19T05:23:52.614Z,11.28
2022-10-19T05:26:22.288Z,11.30
2022-10-19T05:28:50.684Z,11.30
2022-10-19T05:31:20.377Z,11.30
2022-10-19T05:33:47.967Z,11.30
2022-10-19T05:36:22.045Z,11.30
2022-10-19T05:38:50.390Z,11.22
2022-10-19T05:41:17.341Z,11.20
2022-10-19T05:43:44.334Z,11.20
2022-10-19T05:46:15.445Z,11.20
2022-10-19T05:48:41.971Z,11.30
2022-10-19T05:51:12.907Z,11.30
2022-10-19T05:53:40.542Z,11.30
2022-10-19T05:56:11.534Z,11.32
2022-10-19T05:58:38.034Z,11.30
2022-10-19T06:01:04.756Z,11.30
2022-10-19T06:03:31.433Z,11.30
2022-10-19T06:05:58.207Z,11.30
2022-10-19T06:08:25.557Z,11.36
2022-10-19T06:10:52.038Z,11.40
2022-10-19T06:13:20.369Z,11.40
2022-10-19T06:15:51.160Z,11.42
2022-10-19T06:18:17.548Z,11.40
2022-10-19T06:20:44.079Z,11.40
2022-10-19T06:23:10.474Z,11.32
2022-10-19T06:25:38.315Z,11.40
2022-10-19T06:28:05.685Z,11.40
2022-10-19T06:30:32.171Z,11.42
2022-10-19T06:32:59.906Z,11.50
2022-10-19T06:35:26.538Z,11.60
2022-10-19T06:37:52.971Z,11.60
2022-10-19T06:40:20.055Z,11.60
2022-10-19T06:42:46.605Z,11.64
2022-10-19T06:45:12.988Z,11.60
2022-10-19T06:47:39.562Z,11.60
2022-10-19T06:50:07.740Z,11.70
2022-10-19T06:52:35.669Z,11.70
2022-10-19T06:55:03.872Z,11.70
2022-10-19T06:57:30.308Z,11.70
2022-10-19T06:59:56.742Z,11.80
2022-10-19T07:02:23.905Z,11.70
2022-10-19T07:04:50.338Z,11.70
2022-10-19T07:07:16.969Z,11.80
2022-10-19T07:09:43.565Z,11.80
2022-10-19T07:12:10.829Z,11.90
2022-10-19T07:14:39.565Z,12.00
2022-10-19T07:17:07.722Z,12.00
2022-10-19T07:19:34.931Z,12.00
2022-10-19T07:22:05.681Z,12.00
2022-10-19T07:24:32.260Z,12.00
2022-10-19T07:26:58.758Z,12.00
2022-10-19T07:29:25.134Z,12.00
2022-10-19T07:31:51.757Z,12.02
2022-10-19T07:34:19.649Z,12.10
2022-10-19T07:36:48.052Z,12.10
2022-10-19T07:39:19.835Z,12.16
2022-10-19T07:41:46.602Z,12.10
2022-10-19T07:44:15.841Z,12.10
2022-10-19T07:46:44.486Z,12.10
2022-10-19T07:49:16.333Z,12.10
2022-10-19T07:51:43.565Z,12.10
2022-10-19T07:54:10.011Z,12.10
2022-10-19T07:56:36.860Z,12.20
2022-10-19T07:59:05.788Z,12.20
2022-10-19T08:01:38.525Z,12.20
2022-10-19T08:06:51.768Z,12.20
2022-10-19T08:09:51.472Z,12.20
2022-10-19T08:12:13.866Z,12.30
2022-10-19T08:14:41.137Z,12.32
2022-10-19T08:17:11.348Z,12.40
2022-10-19T08:19:43.190Z,12.40
2022-10-19T08:22:10.654Z,12.50
2022-10-19T08:24:37.030Z,12.60
2022-10-19T08:27:03.839Z,12.70
2022-10-19T08:29:31.764Z,12.70
